Time;durP1;ratioP1;P1;durP2;ratioP2;P2;SDS_P1;SDS_P2;PMS_P1;PMS_P2;Temp;Humidity;BMP_temperature;BMP_pressure;BME280_temperature;BME280_humidity;BME280_pressure;Samples;Min_cycle;Max_cycle;Signal;HPM_P1;HPM_P2
2021/06/03 00:00:11;;;;;;;5.47;4.05;;;;;;;-142.75;55.20;76347.84;5033183;28;20109;-76
2021/06/03 00:02:36;;;;;;;6.57;3.50;;;;;;;-142.75;54.95;76351.81;5033219;28;20041;-77
2021/06/03 00:05:05;;;;;;;7.57;3.67;;;;;;;-142.75;54.57;76347.84;5051161;28;20112;-75
2021/06/03 00:07:30;;;;;;;5.97;3.95;;;;;;;-142.75;55.31;76361.63;5050880;28;20062;-75
2021/06/03 00:09:55;;;;;;;6.47;3.40;;;;;;;-142.75;55.47;76365.56;5041490;28;20111;-75
2021/06/03 00:12:20;;;;;;;6.32;3.75;;;;;;;-142.75;55.37;76373.44;5031276;28;20060;-76
2021/06/03 00:14:46;;;;;;;7.07;3.90;;;;;;;-142.75;55.52;76383.28;5031262;28;20094;-77
2021/06/03 00:17:11;;;;;;;7.75;3.92;;;;;;;-142.75;55.57;76369.50;5030640;28;20475;-76
2021/06/03 00:19:36;;;;;;;;;;;;;;;-142.75;55.51;76361.63;5016083;28;20395;-76
2021/06/03 00:22:02;;;;;;;6.97;3.80;;;;;;;-142.75;55.46;76345.91;5050883;28;19912;-76
2021/06/03 00:24:27;;;;;;;8.25;3.85;;;;;;;-142.75;55.42;76355.72;5033104;28;20028;-76
2021/06/03 00:26:53;;;;;;;9.68;3.88;;;;;;;-142.75;55.31;76359.66;5032604;28;20506;-76
2021/06/03 00:29:18;;;;;;;;;;;;;;;-142.75;55.12;76361.63;5051245;28;20566;-76
2021/06/03 00:31:43;;;;;;;5.45;3.30;;;;;;;-142.75;54.94;76365.56;5050812;28;20003;-76
2021/06/03 00:34:09;;;;;;;5.55;3.70;;;;;;;-142.75;55.28;76341.97;5050762;28;20090;-76
2021/06/03 00:36:34;;;;;;;5.75;3.72;;;;;;;-142.75;55.36;76351.81;5050503;28;20466;-77
2021/06/03 00:38:59;;;;;;;;;;;;;;;-142.75;55.63;76361.63;5033239;28;20653;-74
2021/06/03 00:41:25;;;;;;;5.55;3.63;;;;;;;-142.75;55.01;76355.72;5032905;28;19919;-76
2021/06/03 00:43:51;;;;;;;9.75;3.38;;;;;;;-142.75;55.36;76353.78;5050633;28;20048;-76
2021/06/03 00:46:16;;;;;;;5.03;3.33;;;;;;;-142.75;56.10;76341.97;5050166;28;20051;-76
2021/06/03 00:48:42;;;;;;;;;;;;;;;-142.75;55.14;76334.09;5051051;28;20041;-76
2021/06/03 00:51:09;;;;;;;7.03;4.05;;;;;;;-142.75;55.01;76349.81;5032758;28;19959;-77
2021/06/03 00:53:36;;;;;;;7.22;3.60;;;;;;;-142.75;54.61;76353.78;5050506;28;20028;-75
2021/06/03 00:56:03;;;;;;;5.05;3.22;;;;;;;-142.75;54.57;76345.91;5050279;28;20029;-75
2021/06/03 00:58:28;;;;;;;9.00;3.42;;;;;;;-142.75;54.57;76343.94;5050359;28;20032;-74
2021/06/03 01:00:55;;;;;;;7.00;3.42;;;;;;;-142.75;55.19;76345.91;5032598;28;20028;-76
2021/06/03 01:03:23;;;;;;;6.65;3.28;;;;;;;-142.75;55.13;76357.69;5050467;28;20505;-76
2021/06/03 01:05:52;;;;;;;6.00;4.00;;;;;;;-142.75;54.89;76365.56;5032212;28;20036;-75
2021/06/03 01:08:22;;;;;;;6.25;3.28;;;;;;;-142.75;55.05;76365.56;5050331;28;20070;-76
2021/06/03 01:11:10;;;;;;;5.57;3.50;;;;;;;-142.75;54.66;76365.56;5050628;28;20024;-76
2021/06/03 01:13:44;;;;;;;5.07;3.67;;;;;;;-142.75;54.79;76359.66;5054092;28;20025;-76
2021/06/03 01:16:11;;;;;;;6.47;3.78;;;;;;;-142.75;54.39;76359.66;5034302;28;20120;-77
2021/06/03 01:18:39;;;;;;;8.00;3.75;;;;;;;-142.75;54.44;76361.63;5034237;28;20029;-76
2021/06/03 01:21:12;;;;;;;6.60;3.97;;;;;;;-142.75;54.73;76357.69;5016981;28;20438;-75
2021/06/03 01:23:45;;;;;;;4.40;3.20;;;;;;;-142.75;54.85;76359.66;5034278;28;20116;-76
2021/06/03 01:26:13;;;;;;;7.25;3.53;;;;;;;-142.75;55.19;76369.50;5033949;28;20030;-76
2021/06/03 01:28:39;;;;;;;11.13;3.92;;;;;;;-142.75;55.79;76381.31;5034220;28;20079;-76
2021/06/03 01:31:06;;;;;;;6.50;3.70;;;;;;;-142.75;55.60;76389.19;5034284;28;20025;-76
2021/06/03 01:33:33;;;;;;;10.68;3.80;;;;;;;-142.75;54.92;76381.31;5016483;28;20021;-76
2021/06/03 01:36:05;;;;;;;7.38;4.00;;;;;;;-142.75;55.39;76385.25;5015949;28;20121;-75
2021/06/03 01:38:34;;;;;;;6.40;4.07;;;;;;;-142.75;55.42;76391.16;5033946;28;20025;-76
2021/06/03 01:41:03;;;;;;;8.18;4.25;;;;;;;-142.75;55.01;76383.28;5034094;28;20029;-75
2021/06/03 01:43:30;;;;;;;7.40;4.10;;;;;;;-142.75;55.55;76391.16;5033893;28;20025;-75
2021/06/03 01:45:57;;;;;;;8.77;4.55;;;;;;;-142.75;55.55;76391.16;5015808;28;20017;-76
2021/06/03 01:48:22;;;;;;;6.22;3.92;;;;;;;-142.75;55.70;76391.16;5033917;28;20025;-76
2021/06/03 01:50:50;;;;;;;16.60;4.82;;;;;;;-142.75;55.38;76383.28;5033837;28;20025;-76
2021/06/03 01:53:18;;;;;;;10.85;4.38;;;;;;;-142.75;55.95;76385.25;5033918;28;20025;-76
2021/06/03 01:55:44;;;;;;;9.15;4.57;;;;;;;-142.75;56.03;76387.22;5033423;28;20047;-76
2021/06/03 01:58:10;;;;;;;5.82;4.47;;;;;;;-142.75;56.65;76406.91;5033624;28;20026;-75
2021/06/03 02:00:35;;;;;;;8.75;4.88;;;;;;;-142.75;56.67;76422.66;5033636;28;20036;-76
2021/06/03 02:03:01;;;;;;;6.03;4.30;;;;;;;-142.75;57.07;76422.66;5033632;28;20029;-76
2021/06/03 02:05:26;;;;;;;;;;;;;;;-142.75;56.65;76420.69;5033570;28;20021;-75
2021/06/03 02:07:52;;;;;;;8.15;4.88;;;;;;;-142.75;56.92;76428.56;5016819;28;19917;-77
2021/06/03 02:10:18;;;;;;;;;;;;;;;-142.75;57.11;76432.50;5033926;28;20025;-76
2021/06/03 02:12:50;;;;;;;6.03;4.60;;;;;;;-142.75;57.41;76452.19;5015794;28;19920;-76
2021/06/03 02:15:16;;;;;;;7.00;4.93;;;;;;;-142.75;57.38;76446.28;5015622;28;20030;-75
2021/06/03 02:17:46;;;;;;;7.93;4.80;;;;;;;-142.75;57.93;76458.09;5033161;28;20029;-75
2021/06/03 02:20:15;;;;;;;7.20;5.00;;;;;;;-142.75;57.68;76473.84;5025043;28;20215;-76
2021/06/03 02:22:44;;;;;;;6.75;4.80;;;;;;;-142.75;58.10;76479.75;5053196;28;20537;-75
2021/06/03 02:25:10;;;;;;;6.93;4.50;;;;;;;-142.75;58.13;76479.75;5035127;28;20033;-74
2021/06/03 02:27:37;;;;;;;6.65;4.55;;;;;;;-142.75;58.41;76495.50;5052783;28;20027;-76
2021/06/03 02:30:05;;;;;;;5.53;4.25;;;;;;;-142.75;58.76;76503.38;5035143;28;20033;-75
2021/06/03 02:32:34;;;;;;;6.35;4.28;;;;;;;-142.75;58.50;76509.28;5052962;28;20028;-75
2021/06/03 02:35:00;;;;;;;6.15;4.28;;;;;;;-142.75;58.84;76523.06;5034987;28;20017;-75
2021/06/03 02:37:26;;;;;;;8.10;4.25;;;;;;;-142.75;58.80;76528.97;5052669;28;20047;-74
2021/06/03 02:40:01;;;;;;;6.28;4.07;;;;;;;-142.75;59.00;76538.78;5052740;28;20078;-75
2021/06/03 02:42:26;;;;;;;8.48;4.30;;;;;;;-142.75;59.16;76540.75;5025480;28;20029;-75
2021/06/03 02:44:51;;;;;;;;;;;;;;;-142.75;59.07;76546.66;5051899;28;20143;-75
2021/06/03 02:47:18;;;;;;;6.65;4.03;;;;;;;-142.75;59.85;76562.41;5036686;28;19913;-76
2021/06/03 02:49:44;;;;;;;8.70;4.18;;;;;;;-142.75;59.61;76572.25;5039639;28;20108;-75
2021/06/03 02:52:09;;;;;;;;;;;;;;;-142.75;59.29;76574.22;5053072;28;20151;-75
2021/06/03 02:54:34;;;;;;;7.05;4.05;;;;;;;-142.75;59.39;76582.09;5052740;28;20396;-76
2021/06/03 02:57:00;;;;;;;6.15;4.40;;;;;;;-142.75;59.19;76578.16;5052208;28;20047;-75
2021/06/03 02:59:25;;;;;;;;;;;;;;;-142.75;59.24;76584.06;5035136;28;20040;-74
2021/06/03 03:01:51;;;;;;;8.88;4.90;;;;;;;-142.75;59.63;76588.00;5052237;28;20006;-75
2021/06/03 03:04:16;;;;;;;;;;;;;;;-142.75;59.38;76597.84;5052942;28;20028;-75
2021/06/03 03:06:41;;;;;;;5.93;4.70;;;;;;;-142.75;59.82;76601.78;5051885;28;19920;-76
2021/06/03 03:09:06;;;;;;;;;;;;;;;-142.75;59.78;76601.78;5052672;28;20044;-75
2021/06/03 03:11:32;;;;;;;5.88;4.40;;;;;;;-142.75;59.53;76603.75;5052325;28;19919;-75
2021/06/03 03:13:58;;;;;;;8.60;5.28;;;;;;;-142.75;59.73;76611.63;5035195;28;20048;-77
2021/06/03 03:16:23;;;;;;;9.23;4.90;;;;;;;-142.75;60.40;76633.28;5049690;28;20035;-76
2021/06/03 03:18:50;;;;;;;13.38;4.85;;;;;;;-142.75;60.27;76649.03;5022742;28;20027;-76
2021/06/03 03:21:15;;;;;;;5.55;4.55;;;;;;;-142.75;60.20;76656.91;5032207;28;20036;-76
2021/06/03 03:23:40;;;;;;;;;;;;;;;-142.75;60.19;76660.84;5032214;28;20024;-74
2021/06/03 03:26:06;;;;;;;5.95;4.45;;;;;;;-142.75;60.09;76660.84;5022207;28;19935;-75
2021/06/03 03:28:31;;;;;;;7.38;4.80;;;;;;;-142.75;59.82;76664.78;5044081;28;20087;-75
2021/06/03 03:30:57;;;;;;;;;;;;;;;-142.75;59.91;76670.69;5037783;28;20082;-75
2021/06/03 03:33:22;;;;;;;8.15;5.53;;;;;;;-142.75;60.25;76674.63;5033940;28;19924;-74
2021/06/03 03:35:48;;;;;;;;;;;;;;;-142.75;61.00;76672.66;5017575;28;20183;-75
2021/06/03 03:38:15;;;;;;;7.75;5.55;;;;;;;-142.75;61.43;76664.78;5037850;28;19919;-75
2021/06/03 03:40:40;;;;;;;7.15;5.70;;;;;;;-142.75;61.37;76672.66;5031474;28;20052;-75
2021/06/03 03:43:05;;;;;;;;;;;;;;;-142.75;61.47;76668.72;5014530;28;20073;-73
2021/06/03 03:45:32;;;;;;;10.88;6.50;;;;;;;-142.75;61.46;76664.78;5031319;28;20393;-75
2021/06/03 03:47:57;;;;;;;7.68;5.32;;;;;;;-142.75;61.18;76649.03;5013924;28;20034;-77
2021/06/03 03:50:23;;;;;;;;;;;;;;;-142.75;61.13;76660.84;5014232;28;20033;-75
2021/06/03 03:52:49;;;;;;;9.35;6.13;;;;;;;-142.75;61.09;76656.91;5031490;28;19917;-75
2021/06/03 03:55:16;;;;;;;9.50;6.00;;;;;;;-142.75;60.91;76664.78;5024678;28;20078;-73
2021/06/03 03:57:44;;;;;;;7.95;6.28;;;;;;;-142.75;61.34;76676.59;5048778;28;20028;-74
2021/06/03 04:00:14;;;;;;;8.77;6.22;;;;;;;-142.75;61.71;76676.59;5031423;28;20029;-74
2021/06/03 04:02:39;;;;;;;10.38;6.30;;;;;;;-142.75;61.56;76684.47;5012601;28;20045;-74
2021/06/03 04:05:05;;;;;;;;;;;;;;;-142.75;61.54;76692.34;5030090;28;20033;-75
2021/06/03 04:07:31;;;;;;;8.23;5.75;;;;;;;-142.75;61.70;76690.38;5012422;28;19913;-75
2021/06/03 04:09:56;;;;;;;7.88;5.65;;;;;;;-142.75;61.24;76704.16;5029997;28;20116;-74
2021/06/03 04:12:22;;;;;;;;;;;;;;;-142.75;61.56;76710.06;5030559;28;20104;-74
2021/06/03 04:14:47;;;;;;;9.60;5.32;;;;;;;-142.75;61.63;76712.03;5030284;28;19987;-75
2021/06/03 04:17:12;;;;;;;;;;;;;;;-142.75;61.59;76712.03;5031028;28;20108;-75
2021/06/03 04:19:38;;;;;;;11.10;6.30;;;;;;;-142.75;61.72;76719.91;5027005;28;19924;-75
2021/06/03 04:22:03;;;;;;;7.38;5.50;;;;;;;-142.75;61.83;76723.84;5036506;28;20891;-75
2021/06/03 04:24:29;;;;;;;8.55;6.05;;;;;;;-142.75;61.94;76723.84;5050819;28;20103;-75
2021/06/03 04:26:54;;;;;;;9.23;5.70;;;;;;;-142.75;62.02;76719.91;5050558;28;20147;-74
2021/06/03 04:29:19;;;;;;;;;;;;;;;-142.75;61.84;76715.97;5051213;28;20588;-75
2021/06/03 04:31:45;;;;;;;7.13;5.50;;;;;;;-142.75;61.62;76700.22;5050923;28;19916;-75
2021/06/03 04:34:10;;;;;;;;;;;;;;;-142.75;61.90;76702.19;5051301;28;20497;-76
2021/06/03 04:36:35;;;;;;;7.28;5.45;;;;;;;-142.75;61.60;76694.31;5050416;28;19920;-75
2021/06/03 04:39:01;;;;;;;;;;;;;;;-142.75;61.59;76686.44;5047102;28;20108;-74
2021/06/03 04:41:26;;;;;;;8.48;6.00;;;;;;;-142.75;61.68;76680.53;5030838;28;20403;-75
2021/06/03 04:43:51;;;;;;;;;;;;;;;-142.75;61.24;76674.63;5031314;28;20021;-74
2021/06/03 04:46:17;;;;;;;9.05;5.82;;;;;;;-142.75;61.15;76660.84;5011820;28;19916;-75
2021/06/03 04:48:42;;;;;;;;;;;;;;;-142.75;61.15;76652.97;5033434;28;20029;-75
2021/06/03 04:51:07;;;;;;;10.63;6.93;;;;;;;-142.75;60.71;76639.19;5050604;28;19924;-76
2021/06/03 04:53:33;;;;;;;12.40;7.60;;;;;;;-142.75;60.74;76633.28;5050553;28;20021;-75
2021/06/03 04:55:59;;;;;;;;;;;;;;;-142.75;60.80;76637.22;5050548;28;20405;-75
2021/06/03 04:58:24;;;;;;;9.40;7.53;;;;;;;-142.75;60.49;76629.34;5050601;28;19913;-74
2021/06/03 05:00:50;;;;;;;13.13;8.32;;;;;;;-142.75;60.88;76623.44;5032722;28;20025;-75
2021/06/03 05:03:15;;;;;;;14.35;7.80;;;;;;;-142.75;60.75;76611.63;5032492;28;20020;-75
2021/06/03 05:05:41;;;;;;;;;;;;;;;-142.75;60.60;76597.84;5047897;28;20469;-75
2021/06/03 05:08:07;;;;;;;11.45;8.18;;;;;;;-142.75;59.66;76574.22;5030451;28;19935;-75
2021/06/03 05:10:34;;;;;;;10.63;8.02;;;;;;;-142.75;59.84;76562.41;5030587;28;20025;-75
2021/06/03 05:13:00;;;;;;;13.63;9.10;;;;;;;-142.75;59.15;76544.69;5027782;28;20033;-75
2021/06/03 05:15:26;;;;;;;13.13;8.52;;;;;;;-142.75;58.82;76523.06;5020736;28;20108;-75
2021/06/03 05:17:53;;;;;;;11.63;8.55;;;;;;;-142.75;58.76;76499.44;5050220;28;20100;-75
2021/06/03 05:20:22;;;;;;;12.23;8.25;;;;;;;-142.75;57.95;76487.63;5048906;28;20040;-75
2021/06/03 05:22:49;;;;;;;11.95;8.32;;;;;;;-142.75;58.62;76483.69;5030418;28;20112;-76
2021/06/03 05:25:17;;;;;;;14.48;8.75;;;;;;;-142.75;58.24;76479.75;5032230;28;20045;-76
2021/06/03 05:27:43;;;;;;;10.07;8.23;;;;;;;-142.75;58.07;76469.91;5049973;28;20037;-75
2021/06/03 05:30:11;;;;;;;9.65;8.00;;;;;;;-142.75;57.44;76469.91;5032292;28;20029;-76
2021/06/03 05:32:37;;;;;;;11.05;7.78;;;;;;;-142.75;56.58;76446.28;5032330;28;20082;-75
2021/06/03 05:35:06;;;;;;;11.63;7.93;;;;;;;-142.75;57.44;76434.47;5050093;28;20029;-75
2021/06/03 05:37:31;;;;;;;11.30;8.18;;;;;;;-142.75;57.17;76381.31;5049940;28;20033;-75
2021/06/03 05:39:57;;;;;;;13.27;8.05;;;;;;;-142.75;55.06;76312.44;5050158;28;20450;-74
2021/06/03 05:42:22;;;;;;;10.32;8.15;;;;;;;-142.75;54.44;76280.94;5032336;28;20032;-74
2021/06/03 05:44:48;;;;;;;11.25;8.32;;;;;;;-142.75;54.09;76290.78;5039313;28;20036;-75
2021/06/03 05:47:14;;;;;;;9.85;7.75;;;;;;;-142.75;54.25;76290.78;5031636;28;20570;-75
2021/06/03 05:49:39;;;;;;;13.15;8.82;;;;;;;-142.75;54.29;76298.66;5049861;28;20035;-75
2021/06/03 05:52:05;;;;;;;11.57;7.30;;;;;;;-142.75;54.21;76263.22;5049929;28;20025;-73
2021/06/03 05:54:32;;;;;;;13.55;7.95;;;;;;;-142.75;53.14;76212.03;5046235;28;20453;-76
2021/06/03 05:56:58;;;;;;;10.88;8.23;;;;;;;-142.75;52.52;76182.53;5048261;28;20013;-76
2021/06/03 05:59:23;;;;;;;10.43;7.43;;;;;;;-142.75;52.59;76198.28;5033776;28;20108;-75
2021/06/03 06:01:49;;;;;;;11.05;8.35;;;;;;;-142.75;53.15;76231.72;5053319;28;20021;-74
2021/06/03 06:06:49;;;;;;;11.15;7.90;;;;;;;-142.75;53.76;76263.22;5053277;28;20040;-75
2021/06/03 06:09:14;;;;;;;13.95;8.13;;;;;;;-142.75;54.07;76271.09;5035662;28;20067;-75
2021/06/03 06:11:42;;;;;;;11.32;8.98;;;;;;;-142.75;53.94;76292.75;5048013;28;20027;-76
2021/06/03 06:14:08;;;;;;;14.35;9.00;;;;;;;-142.75;54.08;76292.75;5035511;28;20017;-75
2021/06/03 06:16:35;;;;;;;13.13;9.13;;;;;;;-142.75;54.06;76302.59;5050262;28;20506;-74
2021/06/03 06:19:01;;;;;;;14.45;8.65;;;;;;;-142.75;54.26;76277.00;5052325;28;20039;-75
2021/06/03 06:21:26;;;;;;;12.65;9.55;;;;;;;-142.75;52.27;76214.00;5052779;28;20688;-75
2021/06/03 06:23:52;;;;;;;12.73;8.75;;;;;;;-142.75;51.44;76113.63;5035377;28;20111;-76
2021/06/03 06:26:18;;;;;;;15.77;9.57;;;;;;;-142.75;50.96;76060.50;5052857;28;20271;-74
2021/06/03 06:28:44;;;;;;;12.50;7.90;;;;;;;-142.75;49.57;76030.97;5052956;28;20028;-75
2021/06/03 06:31:10;;;;;;;14.30;9.48;;;;;;;-142.75;49.96;75989.63;5053102;28;20029;-75
2021/06/03 06:33:37;;;;;;;12.85;8.70;;;;;;;-142.75;48.70;76007.34;5033184;28;20088;-76
2021/06/03 06:36:04;;;;;;;10.13;8.70;;;;;;;-142.75;48.98;75940.44;5015048;28;20032;-75
2021/06/03 06:38:31;;;;;;;11.70;8.45;;;;;;;-142.75;48.72;75889.25;5015310;28;20034;-74
2021/06/03 06:40:57;;;;;;;12.23;8.48;;;;;;;-142.75;47.65;75849.91;5015217;28;20022;-75
2021/06/03 06:43:22;;;;;;;12.35;8.25;;;;;;;-142.75;46.67;75810.53;5032837;28;20513;-75
2021/06/03 06:45:49;;;;;;;10.60;8.32;;;;;;;-142.75;44.50;75733.78;5032477;28;20025;-76
2021/06/03 06:48:17;;;;;;;11.45;8.10;;;;;;;-142.75;44.75;75657.03;5032829;28;20028;-75
2021/06/03 06:50:45;;;;;;;11.15;7.82;;;;;;;-142.75;43.50;75605.84;5032845;28;20538;-76
2021/06/03 06:53:11;;;;;;;12.23;7.55;;;;;;;-142.75;43.55;75535.00;5032638;28;20044;-75
2021/06/03 06:55:37;;;;;;;10.82;8.05;;;;;;;-142.75;42.15;75576.34;5032482;28;20025;-76
2021/06/03 06:58:02;;;;;;;11.50;7.28;;;;;;;-142.75;42.97;75525.16;5014679;28;20036;-75
2021/06/03 07:00:31;;;;;;;11.30;7.68;;;;;;;-142.75;42.15;75491.72;5014869;28;20560;-76
2021/06/03 07:02:56;;;;;;;15.30;7.82;;;;;;;-142.75;41.58;75448.41;5032525;28;20377;-76
2021/06/03 07:05:22;;;;;;;11.15;7.97;;;;;;;-142.75;41.26;75487.78;5032661;28;20057;-75
2021/06/03 07:07:48;;;;;;;13.25;7.53;;;;;;;-142.75;41.24;75440.53;5052213;28;20029;-76
2021/06/03 07:10:14;;;;;;;9.93;7.40;;;;;;;-142.75;41.07;75405.13;5051370;28;20021;-76
2021/06/03 07:12:41;;;;;;;11.02;7.43;;;;;;;-142.75;41.17;75536.97;5052239;28;20491;-76
2021/06/03 07:15:09;;;;;;;11.00;6.65;;;;;;;-142.75;41.28;75470.06;5052328;28;20585;-76
2021/06/03 07:17:35;;;;;;;9.80;6.43;;;;;;;-142.75;41.27;75442.50;5034099;28;20541;-75
2021/06/03 07:20:00;;;;;;;8.25;6.68;;;;;;;-142.75;42.00;75533.03;5034157;28;20021;-75
2021/06/03 07:22:25;;;;;;;7.80;6.35;;;;;;;-142.75;42.59;75525.16;5043111;28;20059;-76
2021/06/03 07:24:51;;;;;;;11.85;7.15;;;;;;;-142.75;42.41;75527.13;5034834;28;20398;-75
2021/06/03 07:27:16;;;;;;;9.48;7.07;;;;;;;-142.75;43.02;75574.38;5037629;28;20047;-75
2021/06/03 07:29:42;;;;;;;10.10;7.13;;;;;;;-142.75;43.04;75570.44;5040003;28;20025;-76
2021/06/03 07:32:08;;;;;;;8.65;6.60;;;;;;;-142.75;42.63;75594.06;5014193;28;20402;-76
2021/06/03 07:34:34;;;;;;;10.20;7.07;;;;;;;-142.75;42.50;75513.38;5031996;28;20079;-75
2021/06/03 07:36:59;;;;;;;12.13;6.80;;;;;;;-142.75;41.46;75407.09;5048267;28;20463;-76
2021/06/03 07:39:25;;;;;;;10.27;6.65;;;;;;;-142.75;40.73;75357.91;5051744;28;20482;-75
2021/06/03 07:41:51;;;;;;;10.55;7.75;;;;;;;-142.75;39.79;75422.84;5032333;28;20037;-75
2021/06/03 07:44:17;;;;;;;8.80;6.75;;;;;;;-142.75;40.32;75338.22;5031779;28;20463;-76
2021/06/03 07:46:43;;;;;;;10.98;6.97;;;;;;;-142.75;38.72;75357.91;5013657;28;20038;-75
2021/06/03 07:49:12;;;;;;;10.25;7.00;;;;;;;-142.75;40.11;75401.19;5026948;28;20040;-76
2021/06/03 07:51:37;;;;;;;10.90;7.07;;;;;;;-142.75;39.86;75397.25;5051346;28;20027;-77
2021/06/03 07:54:03;;;;;;;11.40;7.15;;;;;;;-142.75;39.51;75336.25;5029530;28;20112;-76
2021/06/03 07:56:28;;;;;;;10.55;6.80;;;;;;;-142.75;39.18;75249.66;5033253;28;20024;-76
2021/06/03 07:58:53;;;;;;;9.40;6.53;;;;;;;-142.75;39.61;75277.22;5033393;28;20083;-76
2021/06/03 08:01:19;;;;;;;8.88;6.15;;;;;;;-142.75;38.58;75157.19;5022647;28;20032;-76
2021/06/03 08:03:45;;;;;;;10.35;6.75;;;;;;;-142.75;36.50;75068.63;5043223;28;20029;-76
2021/06/03 08:06:10;;;;;;;8.48;6.10;;;;;;;-142.75;36.10;75021.41;5020215;28;20024;-76
2021/06/03 08:08:38;;;;;;;9.98;6.10;;;;;;;-142.75;36.20;74968.28;5034393;28;20031;-76
2021/06/03 08:11:05;;;;;;;10.00;6.88;;;;;;;-142.75;34.89;74913.19;5040126;28;20467;-76
2021/06/03 08:13:31;;;;;;;11.00;6.22;;;;;;;-142.75;35.93;74964.34;5044709;28;20040;-76
2021/06/03 08:15:56;;;;;;;8.40;6.95;;;;;;;-142.75;36.38;74932.84;5049289;28;20025;-76
2021/06/03 08:18:24;;;;;;;10.05;6.93;;;;;;;-142.75;35.00;74879.72;5042042;28;20767;-76
2021/06/03 08:20:55;;;;;;;8.18;6.70;;;;;;;-142.75;34.09;74834.47;5031030;28;20036;-76
2021/06/03 08:23:21;;;;;;;12.27;8.77;;;;;;;-142.75;34.69;74838.41;5031076;28;20025;-76
2021/06/03 08:25:47;;;;;;;12.70;9.25;;;;;;;-142.75;35.42;74952.53;5040204;28;20029;-77
2021/06/03 08:28:12;;;;;;;10.23;7.47;;;;;;;-142.75;34.17;74881.69;5047682;28;20033;-75
2021/06/03 08:30:39;;;;;;;13.82;8.90;;;;;;;-142.75;35.04;75023.38;5031067;28;20029;-77
2021/06/03 08:33:06;;;;;;;13.90;8.77;;;;;;;-142.75;35.04;74926.94;5024474;28;20120;-76
2021/06/03 08:35:33;;;;;;;13.35;8.50;;;;;;;-142.75;35.28;74987.94;5050529;28;20521;-76
2021/06/03 08:38:03;;;;;;;9.77;7.40;;;;;;;-142.75;35.32;74962.38;5050737;28;20044;-75
2021/06/03 08:40:44;;;;;;;11.18;8.02;;;;;;;-142.75;34.46;74972.22;5050726;28;20040;-77
2021/06/03 08:43:10;;;;;;;12.13;7.20;;;;;;;-142.75;35.49;74948.59;5030998;28;20441;-76
2021/06/03 08:45:37;;;;;;;12.77;9.32;;;;;;;-142.75;34.86;75054.84;5032909;28;20025;-76
2021/06/03 08:48:03;;;;;;;15.32;7.65;;;;;;;-142.75;34.58;75017.47;5049571;28;20390;-77
2021/06/03 08:50:32;;;;;;;10.38;7.00;;;;;;;-142.75;36.41;75082.41;5031649;28;20036;-76
2021/06/03 08:52:59;;;;;;;12.60;8.20;;;;;;;-142.75;35.52;75060.75;5030742;28;20043;-76
2021/06/03 08:58:27;;;;;;;9.55;6.97;;;;;;;-142.75;34.30;74919.09;4988740;28;20073;-77
2021/06/03 09:00:54;;;;;;;10.93;7.32;;;;;;;-142.75;34.75;74964.34;5037904;28;20033;-76
2021/06/03 09:03:24;;;;;;;9.25;6.95;;;;;;;-142.75;35.41;75011.56;5049802;28;20448;-76
2021/06/03 09:05:49;;;;;;;8.00;6.90;;;;;;;-142.75;36.57;75157.19;5011877;28;20021;-76
2021/06/03 09:08:16;;;;;;;13.88;7.10;;;;;;;-142.75;37.04;75129.63;5022051;28;20033;-76
2021/06/03 09:10:43;;;;;;;11.02;7.53;;;;;;;-142.75;36.51;75172.91;5049145;28;20458;-75
2021/06/03 09:13:14;;;;;;;9.40;8.07;;;;;;;-142.75;37.10;75224.09;5050455;28;20039;-76
2021/06/03 09:15:43;;;;;;;12.43;8.80;;;;;;;-142.75;37.10;75228.00;5047647;28;20024;-76
2021/06/03 09:18:09;;;;;;;10.57;8.57;;;;;;;-142.75;38.64;75316.56;5012623;28;20026;-76
2021/06/03 09:20:40;;;;;;;15.63;8.38;;;;;;;-142.75;38.32;75287.06;5031957;28;20079;-76
2021/06/03 09:23:06;;;;;;;11.77;8.52;;;;;;;-142.75;38.24;75304.75;5050328;28;20067;-74
2021/06/03 09:25:38;;;;;;;13.50;9.27;;;;;;;-142.75;38.57;75271.31;5049880;28;20025;-75
2021/06/03 09:28:19;;;;;;;12.45;10.60;;;;;;;-142.75;38.76;75334.28;5013635;28;20083;-75
2021/06/03 09:31:23;;;;;;;12.98;9.18;;;;;;;-142.75;39.23;75346.09;5030514;28;20475;-76
2021/06/03 09:33:50;;;;;;;13.23;9.75;;;;;;;-142.75;37.18;75121.75;5050535;28;20041;-76
2021/06/03 09:36:38;;;;;;;15.88;9.55;;;;;;;-142.75;38.21;75267.38;5018654;28;20112;-76
2021/06/03 09:39:11;;;;;;;13.93;8.98;;;;;;;-142.75;37.41;75208.34;5031880;28;20031;-76
2021/06/03 09:41:42;;;;;;;11.30;8.23;;;;;;;-142.75;37.95;75200.47;5054037;28;20033;-77
2021/06/03 09:44:10;;;;;;;12.80;8.75;;;;;;;-142.75;38.61;75296.88;5036865;28;20048;-76
2021/06/03 09:46:41;;;;;;;11.68;8.73;;;;;;;-142.75;38.58;75247.69;5033615;28;20112;-77
2021/06/03 09:49:13;;;;;;;12.77;9.85;;;;;;;-142.75;38.87;75383.47;5043875;28;20103;-75
2021/06/03 09:51:38;;;;;;;15.55;9.13;;;;;;;-142.75;38.50;75310.66;5053711;28;20116;-76
2021/06/03 09:54:07;;;;;;;11.52;8.43;;;;;;;-142.75;38.93;75300.81;5053873;28;20104;-76
2021/06/03 09:56:38;;;;;;;19.27;11.02;;;;;;;-142.75;38.27;75292.97;5053535;28;20099;-76
2021/06/03 09:59:07;;;;;;;14.77;11.30;;;;;;;-142.75;37.31;75287.06;5016647;28;20021;-76
2021/06/03 10:01:39;;;;;;;13.18;8.70;;;;;;;-142.75;37.38;75243.75;5035797;28;20033;-76
2021/06/03 10:04:06;;;;;;;13.35;8.63;;;;;;;-142.75;38.08;75202.44;5051741;28;20079;-76
2021/06/03 10:06:32;;;;;;;12.45;8.40;;;;;;;-142.75;37.10;75245.72;5053265;28;20059;-77
2021/06/03 10:08:58;;;;;;;13.70;8.20;;;;;;;-142.75;37.39;75247.69;5053759;28;20044;-76
2021/06/03 10:11:46;;;;;;;15.25;8.32;;;;;;;-142.75;37.95;75214.25;5045550;28;20025;-75
2021/06/03 10:14:16;;;;;;;12.15;9.30;;;;;;;-142.75;37.55;75141.44;5049434;28;20131;-75
2021/06/03 10:16:41;;;;;;;11.07;8.82;;;;;;;-142.75;38.02;75202.44;5049109;28;20016;-75
2021/06/03 10:19:29;;;;;;;11.40;8.75;;;;;;;-142.75;37.31;75206.38;5053264;28;20036;-76
2021/06/03 10:22:13;;;;;;;11.02;8.57;;;;;;;-142.75;38.62;75212.28;5044536;28;20052;-76
2021/06/03 10:24:59;;;;;;;13.63;9.93;;;;;;;-142.75;38.15;75263.44;5018324;28;20047;-75
2021/06/03 10:27:29;;;;;;;13.82;9.77;;;;;;;-142.75;39.18;75322.47;5033018;28;20064;-76
2021/06/03 10:29:54;;;;;;;14.23;9.57;;;;;;;-142.75;39.58;75338.22;5037364;28;20495;-76
2021/06/03 10:32:23;;;;;;;14.57;10.55;;;;;;;-142.75;39.46;75352.00;5033276;28;20056;-75
2021/06/03 10:34:50;;;;;;;16.67;13.45;;;;;;;-142.75;40.68;75562.56;5032214;28;20021;-75
2021/06/03 10:37:16;;;;;;;15.52;11.90;;;;;;;-142.75;41.70;75479.91;5034857;28;20091;-75
2021/06/03 10:39:44;;;;;;;16.63;11.63;;;;;;;-142.75;41.40;75456.28;5028138;28;20115;-76
2021/06/03 10:42:12;;;;;;;15.88;12.82;;;;;;;-142.75;41.37;75430.72;5037757;28;20022;-75
2021/06/03 10:44:40;;;;;;;18.23;13.80;;;;;;;-142.75;39.73;75383.47;5013965;28;20026;-75
2021/06/03 10:47:08;;;;;;;15.45;12.10;;;;;;;-142.75;40.16;75365.75;5046235;28;20028;-78
2021/06/03 10:49:35;;;;;;;18.45;12.65;;;;;;;-142.75;40.10;75409.06;5048680;28;20108;-75
2021/06/03 10:52:07;;;;;;;15.95;11.95;;;;;;;-142.75;40.83;75387.41;5047457;28;20037;-76
2021/06/03 10:55:02;;;;;;;15.30;13.32;;;;;;;-142.75;40.94;75353.97;5032250;28;20391;-75
2021/06/03 10:57:49;;;;;;;13.48;11.88;;;;;;;-142.75;39.96;75397.25;5029765;28;20061;-76
2021/06/03 11:00:24;;;;;;;14.80;11.23;;;;;;;-142.75;41.27;75367.72;5052370;28;20104;-76
2021/06/03 11:02:52;;;;;;;15.68;11.25;;;;;;;-142.75;39.98;75367.72;5052503;28;20025;-76
2021/06/03 11:05:32;;;;;;;13.65;10.00;;;;;;;-142.75;40.20;75428.75;5022132;28;20025;-76
2021/06/03 11:08:33;;;;;;;18.15;12.00;;;;;;;-142.75;40.86;75533.03;5029820;28;20020;-75
2021/06/03 11:11:07;;;;;;;15.93;11.32;;;;;;;-142.75;41.47;75607.81;5051697;28;20037;-76
2021/06/03 11:13:33;;;;;;;17.05;11.90;;;;;;;-142.75;42.00;75599.94;5034551;28;20590;-77
2021/06/03 11:16:06;;;;;;;17.85;11.68;;;;;;;-142.75;42.29;75590.13;5050861;28;20025;-76
2021/06/03 11:18:52;;;;;;;15.85;12.15;;;;;;;-142.75;42.58;75548.78;5039758;28;20035;-76
2021/06/03 11:21:41;;;;;;;;;;;;;;;-142.75;40.34;75409.06;5035713;28;20029;-76
2021/06/03 11:24:33;;;;;;;16.42;11.48;;;;;;;-142.75;39.69;75275.25;5029606;28;19925;-76
2021/06/03 11:27:00;;;;;;;13.77;10.38;;;;;;;-142.75;38.23;75174.88;5047289;28;20040;-77